Tropical Cyclones
[Index]
Main Index Home Page Stock Weather Photos Extreme Storms Discussion Storm News and Storm Chasing Reports Tropical Cyclones / Hurricanes / Typhoons Weather Data and Links Wild Fires / Bushfires Weather Observation Techniques Weather Picture Catalogue Tornado Pictures and Reports Stock Video Footage and DVDs for sale
Season 1992-1993 Tropical Cyclone COLINA Track Map
Season 1992-1993 Summaries: [BoM-AU] [JTWC-AU] [JTWC-SIO] [JTWC-SPAC] [JTWC-SH]
<<- Previous TC | JTWC 1992-1993 Season | Next TC ->>

click for intensity scale information  Lat/long Grid: Show Hide

 Date Labels: Show Hide

Joint Typhoon Warning Centre Cyclone Data

Name: COLINA

11 Jan 1993 12:00 UTC to 21 Jan 1993 12:00 UTC

    date/time    lat    long     hPa   cat  kts
1993-01-11 12    9.0    73.9                  20          
1993-01-11 18    8.9    73.4                  20          
1993-01-12 00    8.8    72.9                  20          
1993-01-12 06    8.7    72.4                  20          
1993-01-12 12    8.7    71.9                  25          
1993-01-12 18    8.7    71.4                  25          
1993-01-13 00    8.7    70.9                  25          
1993-01-13 06    8.8    70.4                  25          
1993-01-13 12    9.0    69.9                  25          
1993-01-13 18    9.2    69.4                  30          
1993-01-14 00    9.5    69.0                  30          
1993-01-14 06    9.9    68.5                  30          
1993-01-14 12   10.3    68.0                  30          
1993-01-14 18   10.7    67.4                  35          
1993-01-15 00   11.0    66.8            1     40          
1993-01-15 06   11.3    66.0            1     45          
1993-01-15 12   11.5    65.1            1     50          
1993-01-15 18   11.6    64.3            2     55          
1993-01-16 00   11.8    63.6            2     55          
1993-01-16 06   12.1    63.1            2     55          
1993-01-16 12   12.5    62.6            2     55          
1993-01-16 18   12.8    61.9            1     50          
1993-01-17 00   13.3    61.1            1     50          
1993-01-17 06   13.7    60.3            1     50          
1993-01-17 12   13.8    59.4            2     55          
1993-01-17 18   14.0    58.5            2     55          
1993-01-18 00   14.5    57.8            2     55          
1993-01-18 06   15.2    57.4            2     55          
1993-01-18 12   16.2    57.1            2     55          
1993-01-18 18   17.2    56.5            2     65          
1993-01-19 00   18.1    56.0            3     75          
1993-01-19 06   19.0    55.5            3     85          
1993-01-19 12   20.0    55.2            3     95          
1993-01-19 18   21.1    54.9            3     95          
1993-01-20 00   22.5    54.9            3     90          
1993-01-20 06   24.2    55.1            3     90          
1993-01-20 12   26.0    55.8            3     85          
1993-01-20 18   27.5    57.3            3     75          
1993-01-21 00   28.9    59.2            2     70          
1993-01-21 06   30.3    61.2            2     65          
1993-01-21 12   32.0    62.6            2     55          
Winds are 1-min average.

Tropical cyclone tracks developed by Michael Bath using data from the Joint Typhoon Warning Centre Best Tracks and Google Maps.


[Australian Severe Weather index] [Copyright Notice] [Email Contacts] [Search This Site] [Privacy Policy]
Document: tropical_cyclone_colina.htm Updated: 18 September 2016